createdAt,value
2023-03-14T00:01:45.970Z,94078.53
2023-03-14T00:04:17.642Z,94075.47
2023-03-14T00:06:50.889Z,94067.44
2023-03-14T00:09:22.496Z,94063.25
2023-03-14T00:11:56.729Z,94061.34
2023-03-14T00:14:28.588Z,94061.69
2023-03-14T00:17:00.124Z,94070.84
2023-03-14T00:19:31.744Z,94074.00
2023-03-14T00:22:03.242Z,94085.84
2023-03-14T00:24:34.863Z,94078.63
2023-03-14T00:27:06.408Z,94059.22
2023-03-14T00:29:38.443Z,94040.25
2023-03-14T00:32:10.055Z,94036.56
2023-03-14T00:34:41.608Z,94046.78
2023-03-14T00:37:13.122Z,94044.47
2023-03-14T00:39:44.683Z,94046.72
2023-03-14T00:42:16.197Z,94063.81
2023-03-14T00:44:48.079Z,94075.56
2023-03-14T00:47:19.928Z,94089.31
2023-03-14T00:49:51.602Z,94075.22
2023-03-14T00:52:23.111Z,94085.88
2023-03-14T00:54:54.783Z,94082.41
2023-03-14T00:57:26.285Z,94083.56
2023-03-14T00:59:57.772Z,94092.72
2023-03-14T01:02:29.896Z,94096.16
2023-03-14T01:05:02.340Z,94087.72
2023-03-14T01:07:34.190Z,94095.38
2023-03-14T01:10:06.869Z,94100.91
2023-03-14T01:12:38.401Z,94110.34
2023-03-14T01:15:10.641Z,94110.34
2023-03-14T01:17:42.368Z,94111.97
2023-03-14T01:20:16.049Z,94110.41
2023-03-14T01:22:47.884Z,94108.91
2023-03-14T01:25:19.620Z,94110.34
2023-03-14T01:27:51.227Z,94116.03
2023-03-14T01:30:23.097Z,94122.19
2023-03-14T01:32:54.694Z,94129.41
2023-03-14T01:35:26.516Z,94132.09
2023-03-14T01:37:58.260Z,94134.34
2023-03-14T01:40:29.814Z,94137.81
2023-03-14T01:43:14.518Z,94146.16
2023-03-14T01:46:07.934Z,94141.25
2023-03-14T01:49:05.462Z,94141.44
2023-03-14T01:51:39.763Z,94150.00
2023-03-14T01:54:28.215Z,94150.88
2023-03-14T01:57:08.148Z,94146.47
2023-03-14T01:59:44.197Z,94154.06
2023-03-14T02:02:17.440Z,94138.59
2023-03-14T02:04:50.761Z,94135.50
2023-03-14T02:07:53.080Z,94126.84
2023-03-14T02:10:39.366Z,94129.16
2023-03-14T02:13:12.688Z,94121.63
2023-03-14T02:15:44.427Z,94122.38
2023-03-14T02:18:18.143Z,94092.44
2023-03-14T02:20:58.768Z,94088.34
2023-03-14T02:23:43.300Z,94072.84
2023-03-14T02:26:39.788Z,94052.66
2023-03-14T02:29:11.513Z,94037.44
2023-03-14T02:31:43.059Z,94022.97
2023-03-14T02:34:14.602Z,94006.59
2023-03-14T02:36:46.768Z,94000.13
2023-03-14T02:39:29.094Z,93965.13
2023-03-14T02:42:00.710Z,93955.22
2023-03-14T02:44:32.288Z,93949.53
2023-03-14T02:47:05.680Z,93956.78
2023-03-14T02:49:37.204Z,93952.22
2023-03-14T02:52:08.736Z,93935.50
2023-03-14T02:54:40.297Z,93924.91
2023-03-14T02:57:11.789Z,93929.56
2023-03-14T02:59:43.589Z,93945.88
2023-03-14T03:02:15.835Z,93952.84
2023-03-14T03:04:47.689Z,93969.56
2023-03-14T03:07:20.131Z,93957.06
2023-03-14T03:09:51.894Z,93971.06
2023-03-14T03:12:23.486Z,93983.59
2023-03-14T03:14:55.027Z,93971.16
2023-03-14T03:17:26.872Z,93970.84
2023-03-14T03:19:58.758Z,93970.47
2023-03-14T03:22:30.401Z,93971.19
2023-03-14T03:25:01.967Z,93975.81
2023-03-14T03:27:35.859Z,93982.66
2023-03-14T03:30:08.915Z,93972.03
2023-03-14T03:32:40.522Z,93962.56
2023-03-14T03:35:12.231Z,93955.34
2023-03-14T03:37:43.762Z,93964.06
2023-03-14T03:40:15.345Z,93956.09
2023-03-14T03:42:46.933Z,93953.47
2023-03-14T03:45:18.500Z,93957.31
2023-03-14T03:47:50.384Z,93955.41
2023-03-14T03:50:22.051Z,93950.84
2023-03-14T03:52:53.891Z,93963.34
2023-03-14T03:55:26.916Z,93952.34
2023-03-14T03:57:58.454Z,93954.25
2023-03-14T04:00:30.046Z,93951.22
2023-03-14T04:03:02.073Z,93953.13
2023-03-14T04:05:35.253Z,93944.41
2023-03-14T04:08:07.102Z,93957.66
2023-03-14T04:10:38.724Z,93952.78
2023-03-14T04:13:10.240Z,93949.34
2023-03-14T04:15:41.858Z,93950.50
2023-03-14T04:18:13.738Z,93949.00
2023-03-14T04:20:45.937Z,93936.88
2023-03-14T04:23:17.684Z,93929.72
2023-03-14T04:25:50.826Z,93936.16
2023-03-14T04:28:24.365Z,93925.91
2023-03-14T04:30:56.258Z,93929.69
2023-03-14T04:33:27.783Z,93924.78
2023-03-14T04:35:59.334Z,93917.22
2023-03-14T04:38:31.379Z,93922.16
2023-03-14T04:41:03.248Z,93921.38
2023-03-14T04:43:35.182Z,93924.84
2023-03-14T04:46:07.077Z,93923.28
2023-03-14T04:48:39.357Z,93914.97
2023-03-14T04:51:10.747Z,93911.91
2023-03-14T04:53:42.617Z,93905.84
2023-03-14T04:56:14.251Z,93895.63
2023-03-14T04:58:45.861Z,93890.31
2023-03-14T05:01:18.713Z,93882.00
2023-03-14T05:03:50.295Z,93886.53
2023-03-14T05:06:21.830Z,93891.84
2023-03-14T05:08:53.538Z,93888.06
2023-03-14T05:11:25.386Z,93886.53
2023-03-14T05:13:57.077Z,93880.88
2023-03-14T05:16:29.029Z,93881.63
2023-03-14T05:19:02.660Z,93883.88
2023-03-14T05:21:34.296Z,93879.72
2023-03-14T05:24:05.913Z,93883.13
2023-03-14T05:26:37.499Z,93878.91
2023-03-14T05:29:08.967Z,93881.91
2023-03-14T05:31:40.702Z,93884.59
2023-03-14T05:34:12.245Z,93876.59
2023-03-14T05:36:44.111Z,93873.16
2023-03-14T05:39:15.582Z,93868.63
2023-03-14T05:41:47.289Z,93869.38
2023-03-14T05:44:19.098Z,93879.28
2023-03-14T05:46:50.726Z,93873.94
2023-03-14T05:49:22.269Z,93864.88
2023-03-14T05:51:54.160Z,93860.34
2023-03-14T05:54:25.649Z,93858.81
2023-03-14T05:56:57.162Z,93859.19
2023-03-14T05:59:28.784Z,93850.03
2023-03-14T06:02:00.672Z,93841.28
2023-03-14T06:04:32.472Z,93838.25
2023-03-14T06:07:04.473Z,93845.81
2023-03-14T06:09:36.083Z,93840.06
2023-03-14T06:12:07.928Z,93840.81
2023-03-14T06:14:39.442Z,93842.72
2023-03-14T06:17:11.155Z,93850.69
2023-03-14T06:19:42.826Z,93844.22
2023-03-14T06:22:14.561Z,93843.44
2023-03-14T06:24:46.029Z,93848.34
2023-03-14T06:27:17.549Z,93850.19
2023-03-14T06:29:49.254Z,93839.53
2023-03-14T06:32:21.610Z,93832.28
2023-03-14T06:34:54.138Z,93824.66
2023-03-14T06:37:26.117Z,93821.97
2023-03-14T06:39:57.670Z,93812.84
2023-03-14T06:42:29.228Z,93802.16
2023-03-14T06:45:00.760Z,93801.34
2023-03-14T06:47:32.511Z,93797.56
2023-03-14T06:50:04.435Z,93810.03
2023-03-14T06:52:36.634Z,93813.44
2023-03-14T06:55:09.748Z,93828.59
2023-03-14T06:57:41.531Z,93819.47
2023-03-14T07:00:14.518Z,93825.53
2023-03-14T07:02:46.093Z,93826.28
2023-03-14T07:05:17.707Z,93846.84
2023-03-14T07:07:49.262Z,93852.13
2023-03-14T07:10:22.299Z,93853.63
2023-03-14T07:12:54.868Z,93858.94
2023-03-14T07:15:26.682Z,93849.81
2023-03-14T07:17:58.303Z,93850.91
2023-03-14T07:20:30.661Z,93849.00
2023-03-14T07:23:03.982Z,93838.38
2023-03-14T07:25:35.509Z,93843.84
2023-03-14T07:28:07.074Z,93842.28
2023-03-14T07:30:38.603Z,93844.69
2023-03-14T07:33:11.545Z,93840.41
2023-03-14T07:35:43.455Z,93844.16
2023-03-14T07:38:15.809Z,93827.00
2023-03-14T07:40:47.208Z,93834.66
2023-03-14T07:43:19.090Z,93822.44
2023-03-14T07:45:51.244Z,93828.84
2023-03-14T07:48:22.963Z,93829.22
2023-03-14T07:50:56.236Z,93827.97
2023-03-14T07:53:27.748Z,93828.66
2023-03-14T07:55:59.352Z,93823.63
2023-03-14T07:58:30.908Z,93823.00
2023-03-14T08:01:02.415Z,93821.03
2023-03-14T08:03:34.394Z,93827.56
2023-03-14T08:06:06.422Z,93824.44
2023-03-14T08:08:37.950Z,93831.97
2023-03-14T08:11:10.096Z,93828.13
2023-03-14T08:13:41.662Z,93825.31
2023-03-14T08:16:13.681Z,93827.59
2023-03-14T08:18:46.208Z,93829.88
2023-03-14T08:21:18.027Z,93827.00
2023-03-14T08:23:49.614Z,93829.50
2023-03-14T08:26:21.446Z,93840.34
2023-03-14T08:28:53.801Z,93843.66
2023-03-14T08:31:25.992Z,93845.53
2023-03-14T08:34:00.710Z,93853.63
2023-03-14T08:36:32.316Z,93854.41
2023-03-14T08:39:05.164Z,93852.50
2023-03-14T08:41:41.408Z,93853.59
2023-03-14T08:44:13.269Z,93845.56
2023-03-14T08:46:44.835Z,93855.31
2023-03-14T08:49:16.575Z,93854.22
2023-03-14T08:51:48.134Z,93854.63
2023-03-14T08:54:20.145Z,93850.41
2023-03-14T08:56:51.742Z,93856.38
2023-03-14T08:59:23.483Z,93861.38
2023-03-14T09:01:55.589Z,93862.44
2023-03-14T09:04:27.241Z,93866.22
2023-03-14T09:06:59.330Z,93863.75
2023-03-14T09:09:34.027Z,93860.63
2023-03-14T09:12:05.975Z,93863.88
2023-03-14T09:14:37.523Z,93866.81
2023-03-14T09:17:09.168Z,93860.34
2023-03-14T09:19:40.765Z,93869.53
2023-03-14T09:22:12.418Z,93867.38
2023-03-14T09:24:44.033Z,93867.59
2023-03-14T09:27:15.658Z,93870.28
2023-03-14T09:29:47.232Z,93857.72
2023-03-14T09:32:19.181Z,93859.94
2023-03-14T09:34:50.862Z,93849.94
2023-03-14T09:37:22.395Z,93854.63
2023-03-14T09:39:53.908Z,93853.34
2023-03-14T09:42:28.715Z,93857.56
2023-03-14T09:45:08.985Z,93848.97
2023-03-14T09:47:56.442Z,93850.03
2023-03-14T09:51:03.749Z,93843.28
2023-03-14T09:53:43.583Z,93839.66
2023-03-14T09:56:25.920Z,93838.97
2023-03-14T09:59:00.828Z,93829.91
2023-03-14T10:01:34.351Z,93836.44
2023-03-14T10:04:14.813Z,93835.78
2023-03-14T10:06:48.603Z,93839.63
2023-03-14T10:09:27.394Z,93824.53
2023-03-14T10:12:09.407Z,93830.91
2023-03-14T10:14:52.170Z,93831.59
2023-03-14T10:17:24.555Z,93825.78
2023-03-14T10:20:01.205Z,93825.41
2023-03-14T10:22:33.942Z,93818.16
2023-03-14T10:25:24.215Z,93826.97
2023-03-14T10:27:55.819Z,93824.69
2023-03-14T10:30:46.929Z,93825.44
2023-03-14T10:33:25.286Z,93823.28
2023-03-14T10:36:20.879Z,93817.28
2023-03-14T10:39:00.613Z,93807.16
2023-03-14T10:41:34.412Z,93811.41
2023-03-14T10:44:10.080Z,93811.19
2023-03-14T10:46:41.660Z,93811.03
2023-03-14T10:49:29.904Z,93825.25
2023-03-14T10:52:19.561Z,93822.09
2023-03-14T10:55:15.027Z,93820.31
2023-03-14T10:57:47.726Z,93823.16
2023-03-14T11:00:25.292Z,93819.31
2023-03-14T11:03:13.936Z,93829.75
2023-03-14T11:06:06.935Z,93828.34
2023-03-14T11:08:43.099Z,93825.16
2023-03-14T11:11:24.244Z,93817.56
2023-03-14T11:14:33.098Z,93813.03
2023-03-14T11:17:22.018Z,93819.25
2023-03-14T11:20:24.044Z,93812.81
2023-03-14T11:23:23.750Z,93793.06
2023-03-14T11:26:04.995Z,93803.09
2023-03-14T11:28:46.661Z,93805.63
2023-03-14T11:31:37.195Z,93811.16
2023-03-14T11:34:16.735Z,93817.53
2023-03-14T11:36:56.985Z,93801.84
2023-03-14T11:39:39.871Z,93803.09
2023-03-14T11:42:18.050Z,93803.19
2023-03-14T11:44:50.716Z,93801.81
2023-03-14T11:47:35.797Z,93801.91
2023-03-14T11:50:16.328Z,93797.72
2023-03-14T11:52:55.204Z,93802.00
2023-03-14T11:55:35.272Z,93805.25
2023-03-14T11:58:19.031Z,93804.03
2023-03-14T12:00:54.480Z,93800.84
2023-03-14T12:03:53.126Z,93807.94
2023-03-14T12:06:39.017Z,93804.50
2023-03-14T12:09:11.921Z,93797.91
2023-03-14T12:11:59.824Z,93811.81
2023-03-14T12:14:37.556Z,93807.25
2023-03-14T12:17:22.302Z,93796.47
2023-03-14T12:20:13.691Z,93806.16
2023-03-14T12:22:57.801Z,93812.09
2023-03-14T12:25:34.414Z,93833.84
2023-03-14T12:28:30.689Z,93798.69
2023-03-14T12:31:31.955Z,93802.59
2023-03-14T12:34:12.958Z,93804.53
2023-03-14T12:36:54.774Z,93810.16
2023-03-14T12:39:29.010Z,93813.31
2023-03-14T12:42:04.155Z,93812.56
2023-03-14T12:44:50.811Z,93816.31
2023-03-14T12:47:25.535Z,93810.69
2023-03-14T12:49:58.595Z,93805.28
2023-03-14T12:52:50.558Z,93814.47
2023-03-14T12:55:59.322Z,93826.91
2023-03-14T12:58:39.584Z,93824.13
2023-03-14T13:01:18.768Z,93822.81
2023-03-14T13:03:58.119Z,93827.63
2023-03-14T13:06:58.240Z,93840.84
2023-03-14T13:09:35.656Z,93835.25
2023-03-14T13:12:12.833Z,93838.78
2023-03-14T13:14:50.927Z,93838.53
2023-03-14T13:17:36.091Z,93857.97
2023-03-14T13:20:17.862Z,93843.38
2023-03-14T13:22:50.857Z,93847.38
2023-03-14T13:25:23.638Z,93871.00
2023-03-14T13:27:56.907Z,93857.78
2023-03-14T13:30:52.137Z,93871.97
2023-03-14T13:33:24.981Z,93875.03
2023-03-14T13:36:05.437Z,93905.34
2023-03-14T13:38:38.491Z,93903.50
2023-03-14T13:41:12.851Z,93913.09
2023-03-14T13:43:45.358Z,93918.09
2023-03-14T13:46:24.305Z,93920.31
2023-03-14T13:48:59.810Z,93929.22
2023-03-14T13:51:36.425Z,93926.47
2023-03-14T13:54:16.635Z,93932.38
2023-03-14T13:56:49.048Z,93939.56
2023-03-14T13:59:28.741Z,93957.00
2023-03-14T14:02:05.189Z,93965.41
2023-03-14T14:04:38.583Z,93957.44
2023-03-14T14:07:17.155Z,93961.06
2023-03-14T14:09:53.515Z,93980.09
2023-03-14T14:12:40.520Z,93969.53
2023-03-14T14:15:17.749Z,94002.34
2023-03-14T14:17:59.983Z,93998.16
2023-03-14T14:20:42.208Z,94005.81
2023-03-14T14:23:26.150Z,94009.59
2023-03-14T14:25:59.194Z,94014.59
2023-03-14T14:28:36.396Z,94027.84
2023-03-14T14:31:26.010Z,94050.66
2023-03-14T14:33:59.107Z,94056.38
2023-03-14T14:36:45.792Z,94056.75
2023-03-14T14:39:27.275Z,94074.19
2023-03-14T14:41:58.781Z,94073.06
2023-03-14T14:44:36.568Z,94087.81
2023-03-14T14:47:08.245Z,94076.09
2023-03-14T14:49:40.056Z,94093.50
2023-03-14T14:52:17.131Z,94104.84
2023-03-14T14:54:58.954Z,94089.69
2023-03-14T14:57:41.463Z,94106.00
2023-03-14T15:00:19.340Z,94097.28
2023-03-14T15:02:59.495Z,94105.63
2023-03-14T15:05:36.699Z,94106.00
2023-03-14T15:08:12.839Z,94106.00
2023-03-14T15:10:44.543Z,94112.09
2023-03-14T15:13:17.656Z,94117.38
2023-03-14T15:15:56.617Z,94115.13
2023-03-14T15:18:31.142Z,94133.66
2023-03-14T15:21:03.249Z,94135.94
2023-03-14T15:23:34.847Z,94150.72
2023-03-14T15:26:14.544Z,94169.66
2023-03-14T15:28:47.368Z,94190.88
2023-03-14T15:31:20.373Z,94192.72
2023-03-14T15:33:56.866Z,94209.34
2023-03-14T15:36:31.808Z,94231.50
2023-03-14T15:39:09.636Z,94256.03
2023-03-14T15:41:42.740Z,94254.44
2023-03-14T15:44:14.516Z,94252.13
2023-03-14T15:46:46.072Z,94252.47
2023-03-14T15:49:17.821Z,94247.22
2023-03-14T15:51:49.837Z,94265.34
2023-03-14T15:54:21.742Z,94262.66
2023-03-14T15:56:55.001Z,94272.06
2023-03-14T15:59:27.183Z,94276.19
2023-03-14T16:01:58.744Z,94271.28
2023-03-14T16:04:30.613Z,94274.69
2023-03-14T16:07:02.198Z,94282.97
2023-03-14T16:09:35.541Z,94300.03
2023-03-14T16:12:08.476Z,94292.50
2023-03-14T16:14:43.766Z,94303.50
2023-03-14T16:17:15.589Z,94295.56
2023-03-14T16:19:47.784Z,94301.25
2023-03-14T16:22:20.507Z,94328.56
2023-03-14T16:24:52.138Z,94360.03
2023-03-14T16:27:23.706Z,94348.25
2023-03-14T16:29:55.338Z,94375.16
2023-03-14T16:32:28.095Z,94347.44
2023-03-14T16:34:59.837Z,94353.53
2023-03-14T16:37:31.334Z,94364.06
2023-03-14T16:40:13.146Z,94372.50
2023-03-14T16:43:11.627Z,94371.31
2023-03-14T16:45:37.880Z,94384.22
2023-03-14T16:48:09.521Z,94379.66
2023-03-14T16:50:42.147Z,94395.16
2023-03-14T16:53:14.854Z,94416.66
2023-03-14T16:55:48.797Z,94407.53
2023-03-14T16:58:21.387Z,94422.59
2023-03-14T17:00:53.045Z,94430.53
2023-03-14T17:03:24.889Z,94442.63
2023-03-14T17:05:56.477Z,94449.81
2023-03-14T17:08:27.998Z,94447.88
2023-03-14T17:10:59.557Z,94458.38
2023-03-14T17:13:31.057Z,94478.81
2023-03-14T17:16:03.091Z,94462.50
2023-03-14T17:18:35.279Z,94468.56
2023-03-14T17:21:07.048Z,94483.16
2023-03-14T17:23:38.883Z,94477.38
2023-03-14T17:26:12.534Z,94486.38
2023-03-14T17:28:44.737Z,94480.63
2023-03-14T17:31:18.275Z,94498.00
2023-03-14T17:33:51.898Z,94508.97
2023-03-14T17:36:26.566Z,94520.91
2023-03-14T17:38:58.681Z,94525.44
2023-03-14T17:41:30.447Z,94525.38
2023-03-14T17:44:01.953Z,94523.44
2023-03-14T17:46:33.692Z,94513.22
2023-03-14T17:49:05.207Z,94523.75
2023-03-14T17:51:37.625Z,94536.56
2023-03-14T17:54:09.000Z,94539.25
2023-03-14T17:56:43.725Z,94543.38
2023-03-14T17:59:15.551Z,94563.41
2023-03-14T18:01:47.534Z,94547.53
2023-03-14T18:04:20.397Z,94558.00
2023-03-14T18:06:51.996Z,94556.91
2023-03-14T18:09:23.682Z,94557.84
2023-03-14T18:12:07.107Z,94562.84
2023-03-14T18:14:44.363Z,94571.13
2023-03-14T18:17:16.078Z,94580.13
2023-03-14T18:19:47.556Z,94575.94
2023-03-14T18:22:19.643Z,94584.22
2023-03-14T18:24:51.526Z,94584.91
2023-03-14T18:27:25.708Z,94566.47
2023-03-14T18:29:58.784Z,94576.31
2023-03-14T18:32:30.410Z,94570.69
2023-03-14T18:35:02.241Z,94579.06
2023-03-14T18:37:33.826Z,94586.28
2023-03-14T18:40:08.916Z,94586.25
2023-03-14T18:42:41.880Z,94588.22
2023-03-14T18:45:15.110Z,94601.09
2023-03-14T18:47:46.669Z,94605.31
2023-03-14T18:50:18.431Z,94612.00
2023-03-14T18:52:50.315Z,94622.25
2023-03-14T18:55:23.802Z,94623.47
2023-03-14T18:57:55.464Z,94624.19
2023-03-14T19:00:28.341Z,94621.94
2023-03-14T19:03:00.352Z,94620.44
2023-03-14T19:05:34.594Z,94620.84
2023-03-14T19:08:08.765Z,94625.84
2023-03-14T19:10:40.668Z,94626.53
2023-03-14T19:13:12.571Z,94631.19
2023-03-14T19:15:45.018Z,94629.38
2023-03-14T19:18:17.967Z,94624.53
2023-03-14T19:20:59.750Z,94629.50
2023-03-14T19:23:38.027Z,94632.63
2023-03-14T19:26:09.980Z,94631.56
2023-03-14T19:28:41.812Z,94634.66
2023-03-14T19:31:14.012Z,94639.94
2023-03-14T19:33:45.661Z,94639.25
2023-03-14T19:36:29.822Z,94642.59
2023-03-14T19:39:04.394Z,94636.25
2023-03-14T19:41:36.311Z,94647.66
2023-03-14T19:44:08.379Z,94645.75
2023-03-14T19:46:39.917Z,94646.06
2023-03-14T19:49:11.868Z,94649.78
2023-03-14T19:51:45.056Z,94645.19
2023-03-14T19:54:16.649Z,94641.16
2023-03-14T19:56:49.171Z,94652.91
2023-03-14T19:59:20.967Z,94660.06
2023-03-14T20:01:54.765Z,94664.13
2023-03-14T20:04:26.620Z,94669.00
2023-03-14T20:06:58.354Z,94676.94
2023-03-14T20:09:30.363Z,94675.13
2023-03-14T20:12:02.623Z,94676.53
2023-03-14T20:14:34.777Z,94684.81
2023-03-14T20:17:08.210Z,94688.47
2023-03-14T20:19:39.810Z,94683.28
2023-03-14T20:22:11.335Z,94686.84
2023-03-14T20:24:43.712Z,94676.91
2023-03-14T20:27:15.409Z,94681.97
2023-03-14T20:29:47.061Z,94692.44
2023-03-14T20:32:20.322Z,94701.72
2023-03-14T20:34:52.691Z,94712.22
2023-03-14T20:37:24.549Z,94733.44
2023-03-14T20:39:56.516Z,94741.59
2023-03-14T20:42:29.291Z,94729.84
2023-03-14T20:45:00.971Z,94726.72
2023-03-14T20:47:34.480Z,94721.38
2023-03-14T20:50:06.501Z,94727.78
2023-03-14T20:52:39.751Z,94736.56
2023-03-14T20:55:11.891Z,94741.03
2023-03-14T20:57:43.410Z,94731.81
2023-03-14T21:00:17.716Z,94739.19
2023-03-14T21:02:49.417Z,94745.41
2023-03-14T21:05:22.513Z,94750.81
2023-03-14T21:07:57.186Z,94743.91
2023-03-14T21:10:29.231Z,94751.56
2023-03-14T21:13:00.726Z,94762.38
2023-03-14T21:15:32.265Z,94762.81
2023-03-14T21:18:05.580Z,94774.50
2023-03-14T21:20:38.815Z,94776.34
2023-03-14T21:23:15.615Z,94792.16
2023-03-14T21:25:52.136Z,94792.97
2023-03-14T21:28:25.588Z,94793.56
2023-03-14T21:31:04.264Z,94788.94
2023-03-14T21:33:36.303Z,94798.06
2023-03-14T21:36:09.369Z,94803.59
2023-03-14T21:38:42.931Z,94798.72
2023-03-14T21:41:14.590Z,94798.72
2023-03-14T21:43:46.343Z,94804.63
2023-03-14T21:46:18.768Z,94799.34
2023-03-14T21:48:50.380Z,94803.06
2023-03-14T21:51:21.982Z,94806.97
2023-03-14T21:53:54.178Z,94802.03
2023-03-14T21:56:27.124Z,94797.94
2023-03-14T21:58:59.935Z,94811.13
2023-03-14T22:01:32.328Z,94798.59
2023-03-14T22:04:03.917Z,94800.31
2023-03-14T22:06:36.333Z,94800.38
2023-03-14T22:09:07.827Z,94802.44
2023-03-14T22:11:40.076Z,94804.63
2023-03-14T22:14:11.544Z,94800.13
